sensor_id;sensor_type;location;lat;lon;timestamp;P1;durP1;ratioP1;P2;durP2;ratioP2
38238;SDS011;24035;48.900;9.188;2023-03-07T00:01:20;9.93;;;3.95;;
38238;SDS011;24035;48.900;9.188;2023-03-07T00:03:53;9.82;;;4.75;;
38238;SDS011;24035;48.900;9.188;2023-03-07T00:06:19;9.63;;;4.85;;
38238;SDS011;24035;48.900;9.188;2023-03-07T00:08:52;10.65;;;4.20;;
38238;SDS011;24035;48.900;9.188;2023-03-07T00:11:20;12.80;;;4.72;;
38238;SDS011;24035;48.900;9.188;2023-03-07T00:13:45;7.75;;;3.97;;
38238;SDS011;24035;48.900;9.188;2023-03-07T00:16:12;9.30;;;4.10;;
38238;SDS011;24035;48.900;9.188;2023-03-07T00:18:39;10.32;;;3.88;;
38238;SDS011;24035;48.900;9.188;2023-03-07T00:21:06;11.57;;;4.30;;
38238;SDS011;24035;48.900;9.188;2023-03-07T00:23:34;9.55;;;4.05;;
38238;SDS011;24035;48.900;9.188;2023-03-07T00:26:15;8.73;;;3.83;;
38238;SDS011;24035;48.900;9.188;2023-03-07T00:28:46;11.90;;;4.22;;
38238;SDS011;24035;48.900;9.188;2023-03-07T00:31:12;10.32;;;4.32;;
38238;SDS011;24035;48.900;9.188;2023-03-07T00:33:39;9.88;;;4.35;;
38238;SDS011;24035;48.900;9.188;2023-03-07T00:36:11;11.25;;;4.85;;
38238;SDS011;24035;48.900;9.188;2023-03-07T00:38:39;7.70;;;3.92;;
38238;SDS011;24035;48.900;9.188;2023-03-07T00:41:10;8.63;;;3.80;;
38238;SDS011;24035;48.900;9.188;2023-03-07T00:43:37;9.30;;;4.07;;
38238;SDS011;24035;48.900;9.188;2023-03-07T00:46:04;8.43;;;4.22;;
38238;SDS011;24035;48.900;9.188;2023-03-07T00:48:34;9.10;;;4.03;;
38238;SDS011;24035;48.900;9.188;2023-03-07T00:51:01;10.57;;;4.43;;
38238;SDS011;24035;48.900;9.188;2023-03-07T00:53:28;10.88;;;4.88;;
38238;SDS011;24035;48.900;9.188;2023-03-07T00:55:55;10.27;;;4.05;;
38238;SDS011;24035;48.900;9.188;2023-03-07T00:58:22;9.75;;;3.65;;
38238;SDS011;24035;48.900;9.188;2023-03-07T01:00:49;8.77;;;4.68;;
38238;SDS011;24035;48.900;9.188;2023-03-07T01:03:14;11.00;;;4.00;;
38238;SDS011;24035;48.900;9.188;2023-03-07T01:05:40;7.95;;;3.47;;
38238;SDS011;24035;48.900;9.188;2023-03-07T01:08:06;11.30;;;4.20;;
38238;SDS011;24035;48.900;9.188;2023-03-07T01:10:32;9.05;;;3.65;;
38238;SDS011;24035;48.900;9.188;2023-03-07T01:12:58;10.00;;;4.53;;
38238;SDS011;24035;48.900;9.188;2023-03-07T01:15:24;12.07;;;4.57;;
38238;SDS011;24035;48.900;9.188;2023-03-07T01:17:50;11.35;;;4.53;;
38238;SDS011;24035;48.900;9.188;2023-03-07T01:20:16;7.57;;;3.90;;
38238;SDS011;24035;48.900;9.188;2023-03-07T01:22:42;9.43;;;4.00;;
38238;SDS011;24035;48.900;9.188;2023-03-07T01:25:07;9.80;;;4.20;;
38238;SDS011;24035;48.900;9.188;2023-03-07T01:27:34;9.60;;;4.05;;
38238;SDS011;24035;48.900;9.188;2023-03-07T01:30:00;7.88;;;3.85;;
38238;SDS011;24035;48.900;9.188;2023-03-07T01:32:26;10.63;;;4.00;;
38238;SDS011;24035;48.900;9.188;2023-03-07T01:34:51;8.93;;;3.85;;
38238;SDS011;24035;48.900;9.188;2023-03-07T01:37:17;9.73;;;3.85;;
38238;SDS011;24035;48.900;9.188;2023-03-07T01:39:43;8.38;;;3.88;;
38238;SDS011;24035;48.900;9.188;2023-03-07T01:42:09;9.57;;;4.10;;
38238;SDS011;24035;48.900;9.188;2023-03-07T01:44:56;8.43;;;3.60;;
38238;SDS011;24035;48.900;9.188;2023-03-07T01:47:30;9.60;;;4.30;;
38238;SDS011;24035;48.900;9.188;2023-03-07T01:49:56;8.90;;;3.78;;
38238;SDS011;24035;48.900;9.188;2023-03-07T01:52:35;10.82;;;4.10;;
38238;SDS011;24035;48.900;9.188;2023-03-07T01:55:05;9.88;;;4.28;;
38238;SDS011;24035;48.900;9.188;2023-03-07T01:57:36;9.18;;;4.18;;
38238;SDS011;24035;48.900;9.188;2023-03-07T02:00:07;8.23;;;3.53;;
38238;SDS011;24035;48.900;9.188;2023-03-07T02:02:39;8.23;;;3.70;;
38238;SDS011;24035;48.900;9.188;2023-03-07T02:05:15;9.00;;;3.47;;
38238;SDS011;24035;48.900;9.188;2023-03-07T02:07:46;8.85;;;3.97;;
38238;SDS011;24035;48.900;9.188;2023-03-07T02:10:14;10.45;;;3.60;;
38238;SDS011;24035;48.900;9.188;2023-03-07T02:12:41;11.75;;;4.55;;
38238;SDS011;24035;48.900;9.188;2023-03-07T02:15:08;10.32;;;3.92;;
38238;SDS011;24035;48.900;9.188;2023-03-07T02:17:34;9.00;;;4.00;;
38238;SDS011;24035;48.900;9.188;2023-03-07T02:22:38;10.00;;;4.13;;
38238;SDS011;24035;48.900;9.188;2023-03-07T02:27:34;8.60;;;4.00;;
38238;SDS011;24035;48.900;9.188;2023-03-07T02:30:01;10.00;;;3.97;;
38238;SDS011;24035;48.900;9.188;2023-03-07T02:32:28;8.48;;;4.15;;
38238;SDS011;24035;48.900;9.188;2023-03-07T02:34:54;12.57;;;4.40;;
38238;SDS011;24035;48.900;9.188;2023-03-07T02:37:32;8.93;;;3.72;;
38238;SDS011;24035;48.900;9.188;2023-03-07T02:40:03;9.63;;;3.92;;
38238;SDS011;24035;48.900;9.188;2023-03-07T02:42:31;9.15;;;4.03;;
38238;SDS011;24035;48.900;9.188;2023-03-07T02:45:01;10.70;;;4.00;;
38238;SDS011;24035;48.900;9.188;2023-03-07T02:47:29;10.45;;;4.45;;
38238;SDS011;24035;48.900;9.188;2023-03-07T02:49:55;10.57;;;4.07;;
38238;SDS011;24035;48.900;9.188;2023-03-07T02:52:21;8.23;;;3.88;;
38238;SDS011;24035;48.900;9.188;2023-03-07T02:54:47;7.65;;;3.53;;
38238;SDS011;24035;48.900;9.188;2023-03-07T02:57:13;9.90;;;4.03;;
38238;SDS011;24035;48.900;9.188;2023-03-07T02:59:39;7.95;;;3.05;;
38238;SDS011;24035;48.900;9.188;2023-03-07T03:02:05;9.02;;;3.90;;
38238;SDS011;24035;48.900;9.188;2023-03-07T03:04:30;9.70;;;4.07;;
38238;SDS011;24035;48.900;9.188;2023-03-07T03:06:56;9.32;;;3.85;;
38238;SDS011;24035;48.900;9.188;2023-03-07T03:09:22;9.15;;;4.18;;
38238;SDS011;24035;48.900;9.188;2023-03-07T03:11:47;10.07;;;4.05;;
38238;SDS011;24035;48.900;9.188;2023-03-07T03:14:13;9.52;;;3.80;;
38238;SDS011;24035;48.900;9.188;2023-03-07T03:16:38;10.52;;;4.07;;
38238;SDS011;24035;48.900;9.188;2023-03-07T03:19:05;10.63;;;4.38;;
38238;SDS011;24035;48.900;9.188;2023-03-07T03:21:31;8.50;;;3.60;;
38238;SDS011;24035;48.900;9.188;2023-03-07T03:23:57;8.63;;;3.78;;
38238;SDS011;24035;48.900;9.188;2023-03-07T03:26:22;8.93;;;3.40;;
38238;SDS011;24035;48.900;9.188;2023-03-07T03:28:48;7.95;;;4.22;;
38238;SDS011;24035;48.900;9.188;2023-03-07T03:31:14;10.00;;;4.40;;
38238;SDS011;24035;48.900;9.188;2023-03-07T03:33:40;12.23;;;4.70;;
38238;SDS011;24035;48.900;9.188;2023-03-07T03:36:12;10.00;;;3.95;;
38238;SDS011;24035;48.900;9.188;2023-03-07T03:38:39;7.50;;;3.67;;
38238;SDS011;24035;48.900;9.188;2023-03-07T03:41:06;11.65;;;4.15;;
38238;SDS011;24035;48.900;9.188;2023-03-07T03:43:35;8.82;;;3.88;;
38238;SDS011;24035;48.900;9.188;2023-03-07T03:46:00;9.77;;;4.22;;
38238;SDS011;24035;48.900;9.188;2023-03-07T03:48:26;9.93;;;4.32;;
38238;SDS011;24035;48.900;9.188;2023-03-07T03:51:11;7.97;;;3.65;;
38238;SDS011;24035;48.900;9.188;2023-03-07T03:53:38;10.02;;;4.00;;
38238;SDS011;24035;48.900;9.188;2023-03-07T03:58:32;7.13;;;3.45;;
38238;SDS011;24035;48.900;9.188;2023-03-07T04:01:01;10.15;;;4.05;;
38238;SDS011;24035;48.900;9.188;2023-03-07T04:03:35;9.50;;;3.65;;
38238;SDS011;24035;48.900;9.188;2023-03-07T04:06:02;8.52;;;3.88;;
38238;SDS011;24035;48.900;9.188;2023-03-07T04:08:30;10.52;;;4.25;;
38238;SDS011;24035;48.900;9.188;2023-03-07T04:10:57;9.32;;;4.38;;
38238;SDS011;24035;48.900;9.188;2023-03-07T04:13:23;11.10;;;4.25;;
38238;SDS011;24035;48.900;9.188;2023-03-07T04:15:49;9.20;;;3.47;;
38238;SDS011;24035;48.900;9.188;2023-03-07T04:18:16;8.77;;;4.22;;
38238;SDS011;24035;48.900;9.188;2023-03-07T04:20:46;10.07;;;4.38;;
38238;SDS011;24035;48.900;9.188;2023-03-07T04:23:14;11.10;;;4.20;;
38238;SDS011;24035;48.900;9.188;2023-03-07T04:25:45;10.35;;;4.88;;
38238;SDS011;24035;48.900;9.188;2023-03-07T04:28:11;13.00;;;4.55;;
38238;SDS011;24035;48.900;9.188;2023-03-07T04:30:37;11.80;;;3.90;;
38238;SDS011;24035;48.900;9.188;2023-03-07T04:33:03;9.80;;;3.75;;
38238;SDS011;24035;48.900;9.188;2023-03-07T04:35:28;8.88;;;3.40;;
38238;SDS011;24035;48.900;9.188;2023-03-07T04:37:54;8.88;;;3.60;;
38238;SDS011;24035;48.900;9.188;2023-03-07T04:40:19;6.88;;;3.72;;
38238;SDS011;24035;48.900;9.188;2023-03-07T04:42:45;9.52;;;3.97;;
38238;SDS011;24035;48.900;9.188;2023-03-07T04:45:11;11.43;;;4.68;;
38238;SDS011;24035;48.900;9.188;2023-03-07T04:47:37;9.05;;;4.20;;
38238;SDS011;24035;48.900;9.188;2023-03-07T04:50:02;9.85;;;4.85;;
38238;SDS011;24035;48.900;9.188;2023-03-07T04:52:28;9.13;;;3.95;;
38238;SDS011;24035;48.900;9.188;2023-03-07T04:54:54;9.80;;;4.00;;
38238;SDS011;24035;48.900;9.188;2023-03-07T04:57:20;9.70;;;3.90;;
38238;SDS011;24035;48.900;9.188;2023-03-07T04:59:45;10.18;;;4.50;;
38238;SDS011;24035;48.900;9.188;2023-03-07T05:02:11;10.02;;;4.15;;
38238;SDS011;24035;48.900;9.188;2023-03-07T05:04:38;9.70;;;4.03;;
38238;SDS011;24035;48.900;9.188;2023-03-07T05:07:03;9.20;;;3.58;;
38238;SDS011;24035;48.900;9.188;2023-03-07T05:09:29;8.80;;;3.75;;
38238;SDS011;24035;48.900;9.188;2023-03-07T05:11:55;8.48;;;4.07;;
38238;SDS011;24035;48.900;9.188;2023-03-07T05:14:21;8.32;;;3.80;;
38238;SDS011;24035;48.900;9.188;2023-03-07T05:16:46;8.52;;;2.85;;
38238;SDS011;24035;48.900;9.188;2023-03-07T05:19:12;10.40;;;3.97;;
38238;SDS011;24035;48.900;9.188;2023-03-07T05:21:38;11.32;;;3.65;;
38238;SDS011;24035;48.900;9.188;2023-03-07T05:24:05;10.15;;;4.00;;
38238;SDS011;24035;48.900;9.188;2023-03-07T05:26:31;7.32;;;3.42;;
38238;SDS011;24035;48.900;9.188;2023-03-07T05:28:57;7.55;;;3.25;;
38238;SDS011;24035;48.900;9.188;2023-03-07T05:31:23;7.18;;;3.13;;
38238;SDS011;24035;48.900;9.188;2023-03-07T05:33:49;7.95;;;3.53;;
38238;SDS011;24035;48.900;9.188;2023-03-07T05:36:15;8.50;;;3.55;;
38238;SDS011;24035;48.900;9.188;2023-03-07T05:38:41;10.93;;;3.65;;
38238;SDS011;24035;48.900;9.188;2023-03-07T05:41:07;10.10;;;3.50;;
38238;SDS011;24035;48.900;9.188;2023-03-07T05:43:32;8.02;;;3.28;;
38238;SDS011;24035;48.900;9.188;2023-03-07T05:45:58;7.70;;;3.67;;
38238;SDS011;24035;48.900;9.188;2023-03-07T05:48:23;10.35;;;3.25;;
38238;SDS011;24035;48.900;9.188;2023-03-07T05:50:49;10.73;;;3.83;;
38238;SDS011;24035;48.900;9.188;2023-03-07T05:53:15;10.70;;;3.47;;
38238;SDS011;24035;48.900;9.188;2023-03-07T05:55:40;10.15;;;3.40;;
38238;SDS011;24035;48.900;9.188;2023-03-07T05:58:06;9.90;;;3.28;;
38238;SDS011;24035;48.900;9.188;2023-03-07T06:00:32;10.02;;;3.50;;
38238;SDS011;24035;48.900;9.188;2023-03-07T06:02:59;7.05;;;3.20;;
38238;SDS011;24035;48.900;9.188;2023-03-07T06:05:28;9.90;;;4.00;;
38238;SDS011;24035;48.900;9.188;2023-03-07T06:07:54;8.75;;;4.10;;
38238;SDS011;24035;48.900;9.188;2023-03-07T06:10:20;9.52;;;4.45;;
38238;SDS011;24035;48.900;9.188;2023-03-07T06:12:49;11.85;;;4.30;;
38238;SDS011;24035;48.900;9.188;2023-03-07T06:15:16;9.00;;;4.55;;
38238;SDS011;24035;48.900;9.188;2023-03-07T06:17:42;10.20;;;4.13;;
38238;SDS011;24035;48.900;9.188;2023-03-07T06:20:08;8.40;;;4.10;;
38238;SDS011;24035;48.900;9.188;2023-03-07T06:22:34;10.63;;;4.75;;
38238;SDS011;24035;48.900;9.188;2023-03-07T06:25:02;7.72;;;3.72;;
38238;SDS011;24035;48.900;9.188;2023-03-07T06:27:32;8.18;;;3.45;;
38238;SDS011;24035;48.900;9.188;2023-03-07T06:29:59;10.02;;;4.18;;
38238;SDS011;24035;48.900;9.188;2023-03-07T06:32:25;6.88;;;3.53;;
38238;SDS011;24035;48.900;9.188;2023-03-07T06:34:50;8.90;;;3.67;;
38238;SDS011;24035;48.900;9.188;2023-03-07T06:37:16;10.88;;;4.43;;
38238;SDS011;24035;48.900;9.188;2023-03-07T06:39:41;13.43;;;4.00;;
38238;SDS011;24035;48.900;9.188;2023-03-07T06:42:07;8.50;;;4.05;;
38238;SDS011;24035;48.900;9.188;2023-03-07T06:44:33;8.80;;;4.43;;
38238;SDS011;24035;48.900;9.188;2023-03-07T06:46:59;9.82;;;4.25;;
38238;SDS011;24035;48.900;9.188;2023-03-07T06:49:24;9.95;;;4.05;;
38238;SDS011;24035;48.900;9.188;2023-03-07T06:51:50;7.68;;;3.47;;
38238;SDS011;24035;48.900;9.188;2023-03-07T06:54:16;10.52;;;4.85;;
38238;SDS011;24035;48.900;9.188;2023-03-07T06:56:42;11.18;;;4.13;;
38238;SDS011;24035;48.900;9.188;2023-03-07T07:02:30;8.85;;;3.78;;
38238;SDS011;24035;48.900;9.188;2023-03-07T07:04:56;10.55;;;3.88;;
38238;SDS011;24035;48.900;9.188;2023-03-07T07:07:23;11.93;;;4.13;;
38238;SDS011;24035;48.900;9.188;2023-03-07T07:09:49;10.30;;;3.72;;
38238;SDS011;24035;48.900;9.188;2023-03-07T07:12:14;9.57;;;3.85;;
38238;SDS011;24035;48.900;9.188;2023-03-07T07:14:40;10.63;;;4.13;;
38238;SDS011;24035;48.900;9.188;2023-03-07T07:17:06;10.95;;;4.28;;
38238;SDS011;24035;48.900;9.188;2023-03-07T07:19:32;11.55;;;4.22;;
38238;SDS011;24035;48.900;9.188;2023-03-07T07:21:58;7.82;;;4.00;;
38238;SDS011;24035;48.900;9.188;2023-03-07T07:24:24;10.13;;;4.05;;
38238;SDS011;24035;48.900;9.188;2023-03-07T07:26:50;11.50;;;4.20;;
38238;SDS011;24035;48.900;9.188;2023-03-07T07:29:16;9.90;;;3.67;;
38238;SDS011;24035;48.900;9.188;2023-03-07T07:31:42;10.75;;;4.20;;
38238;SDS011;24035;48.900;9.188;2023-03-07T07:34:07;7.15;;;3.33;;
38238;SDS011;24035;48.900;9.188;2023-03-07T07:36:33;11.60;;;4.63;;
38238;SDS011;24035;48.900;9.188;2023-03-07T07:39:03;8.68;;;3.85;;
38238;SDS011;24035;48.900;9.188;2023-03-07T07:41:30;8.90;;;3.67;;
38238;SDS011;24035;48.900;9.188;2023-03-07T07:43:57;11.52;;;3.88;;
38238;SDS011;24035;48.900;9.188;2023-03-07T07:46:22;7.55;;;3.60;;
38238;SDS011;24035;48.900;9.188;2023-03-07T07:48:48;8.13;;;3.60;;
38238;SDS011;24035;48.900;9.188;2023-03-07T07:51:14;8.52;;;3.97;;
38238;SDS011;24035;48.900;9.188;2023-03-07T07:53:40;7.70;;;3.38;;
38238;SDS011;24035;48.900;9.188;2023-03-07T07:56:06;8.70;;;4.07;;
38238;SDS011;24035;48.900;9.188;2023-03-07T07:58:32;7.65;;;3.40;;
38238;SDS011;24035;48.900;9.188;2023-03-07T08:00:58;9.25;;;3.58;;
38238;SDS011;24035;48.900;9.188;2023-03-07T08:03:24;7.72;;;3.58;;
38238;SDS011;24035;48.900;9.188;2023-03-07T08:05:50;9.98;;;3.83;;
38238;SDS011;24035;48.900;9.188;2023-03-07T08:08:16;7.18;;;3.10;;
38238;SDS011;24035;48.900;9.188;2023-03-07T08:10:44;8.00;;;3.60;;
38238;SDS011;24035;48.900;9.188;2023-03-07T08:13:11;8.10;;;3.75;;
38238;SDS011;24035;48.900;9.188;2023-03-07T08:15:38;8.73;;;3.47;;
38238;SDS011;24035;48.900;9.188;2023-03-07T08:18:04;7.65;;;3.50;;
38238;SDS011;24035;48.900;9.188;2023-03-07T08:20:30;9.52;;;3.80;;
38238;SDS011;24035;48.900;9.188;2023-03-07T08:22:55;8.00;;;3.35;;
38238;SDS011;24035;48.900;9.188;2023-03-07T08:25:22;12.15;;;3.78;;
38238;SDS011;24035;48.900;9.188;2023-03-07T08:27:49;8.32;;;3.33;;
38238;SDS011;24035;48.900;9.188;2023-03-07T08:30:26;7.60;;;3.60;;
38238;SDS011;24035;48.900;9.188;2023-03-07T08:32:53;11.45;;;3.10;;
38238;SDS011;24035;48.900;9.188;2023-03-07T08:35:20;8.27;;;2.88;;
38238;SDS011;24035;48.900;9.188;2023-03-07T08:37:47;8.68;;;3.53;;
38238;SDS011;24035;48.900;9.188;2023-03-07T08:40:13;6.65;;;3.25;;
38238;SDS011;24035;48.900;9.188;2023-03-07T08:42:40;7.00;;;3.10;;
38238;SDS011;24035;48.900;9.188;2023-03-07T08:45:07;6.70;;;3.00;;
38238;SDS011;24035;48.900;9.188;2023-03-07T08:47:33;8.07;;;3.72;;
38238;SDS011;24035;48.900;9.188;2023-03-07T08:49:58;7.80;;;3.42;;
38238;SDS011;24035;48.900;9.188;2023-03-07T08:52:24;7.45;;;3.33;;
38238;SDS011;24035;48.900;9.188;2023-03-07T08:54:50;7.03;;;3.35;;
38238;SDS011;24035;48.900;9.188;2023-03-07T08:57:15;8.20;;;3.28;;
38238;SDS011;24035;48.900;9.188;2023-03-07T08:59:41;5.85;;;3.08;;
38238;SDS011;24035;48.900;9.188;2023-03-07T09:02:08;7.30;;;3.22;;
38238;SDS011;24035;48.900;9.188;2023-03-07T09:04:35;6.38;;;2.80;;
38238;SDS011;24035;48.900;9.188;2023-03-07T09:07:01;6.93;;;2.78;;
38238;SDS011;24035;48.900;9.188;2023-03-07T09:09:27;7.03;;;2.90;;
38238;SDS011;24035;48.900;9.188;2023-03-07T09:11:54;9.07;;;3.13;;
38238;SDS011;24035;48.900;9.188;2023-03-07T09:14:19;7.45;;;3.28;;
38238;SDS011;24035;48.900;9.188;2023-03-07T09:16:45;8.25;;;2.80;;
38238;SDS011;24035;48.900;9.188;2023-03-07T09:19:10;5.93;;;2.90;;
38238;SDS011;24035;48.900;9.188;2023-03-07T09:21:36;6.80;;;2.70;;
38238;SDS011;24035;48.900;9.188;2023-03-07T09:24:02;7.18;;;2.88;;
38238;SDS011;24035;48.900;9.188;2023-03-07T09:26:28;6.63;;;2.53;;
38238;SDS011;24035;48.900;9.188;2023-03-07T09:28:54;5.40;;;2.22;;
38238;SDS011;24035;48.900;9.188;2023-03-07T09:31:19;5.22;;;2.38;;
38238;SDS011;24035;48.900;9.188;2023-03-07T09:33:45;6.65;;;2.92;;
38238;SDS011;24035;48.900;9.188;2023-03-07T09:36:11;9.25;;;2.38;;
38238;SDS011;24035;48.900;9.188;2023-03-07T09:38:38;5.53;;;2.60;;
38238;SDS011;24035;48.900;9.188;2023-03-07T09:41:20;6.97;;;2.33;;
38238;SDS011;24035;48.900;9.188;2023-03-07T09:46:41;6.10;;;2.17;;
38238;SDS011;24035;48.900;9.188;2023-03-07T09:49:15;4.70;;;2.03;;
38238;SDS011;24035;48.900;9.188;2023-03-07T09:52:07;6.72;;;2.55;;
38238;SDS011;24035;48.900;9.188;2023-03-07T09:54:49;4.85;;;2.25;;
38238;SDS011;24035;48.900;9.188;2023-03-07T09:57:40;5.97;;;2.17;;
38238;SDS011;24035;48.900;9.188;2023-03-07T10:00:22;5.55;;;2.22;;
38238;SDS011;24035;48.900;9.188;2023-03-07T10:02:55;5.80;;;2.05;;
38238;SDS011;24035;48.900;9.188;2023-03-07T10:05:39;5.15;;;2.20;;
38238;SDS011;24035;48.900;9.188;2023-03-07T10:08:17;4.82;;;2.00;;
38238;SDS011;24035;48.900;9.188;2023-03-07T10:10:48;7.03;;;2.38;;
38238;SDS011;24035;48.900;9.188;2023-03-07T10:21:49;4.65;;;1.65;;
38238;SDS011;24035;48.900;9.188;2023-03-07T10:27:11;5.97;;;2.05;;
38238;SDS011;24035;48.900;9.188;2023-03-07T10:38:10;4.57;;;1.90;;
38238;SDS011;24035;48.900;9.188;2023-03-07T10:40:56;6.68;;;1.90;;
38238;SDS011;24035;48.900;9.188;2023-03-07T10:43:28;4.20;;;1.70;;
38238;SDS011;24035;48.900;9.188;2023-03-07T10:46:00;3.95;;;1.52;;
38238;SDS011;24035;48.900;9.188;2023-03-07T10:48:54;6.47;;;1.77;;
38238;SDS011;24035;48.900;9.188;2023-03-07T10:54:15;6.15;;;1.95;;
38238;SDS011;24035;48.900;9.188;2023-03-07T10:59:30;5.30;;;1.95;;
38238;SDS011;24035;48.900;9.188;2023-03-07T11:01:57;6.53;;;2.22;;
38238;SDS011;24035;48.900;9.188;2023-03-07T11:04:26;4.82;;;1.95;;
38238;SDS011;24035;48.900;9.188;2023-03-07T11:06:57;5.45;;;1.98;;
38238;SDS011;24035;48.900;9.188;2023-03-07T11:09:31;7.72;;;2.00;;
38238;SDS011;24035;48.900;9.188;2023-03-07T11:14:30;6.45;;;2.65;;
38238;SDS011;24035;48.900;9.188;2023-03-07T11:17:23;4.35;;;1.95;;
38238;SDS011;24035;48.900;9.188;2023-03-07T11:20:11;5.00;;;1.80;;
38238;SDS011;24035;48.900;9.188;2023-03-07T11:22:44;6.50;;;2.50;;
38238;SDS011;24035;48.900;9.188;2023-03-07T11:25:15;5.65;;;2.30;;
38238;SDS011;24035;48.900;9.188;2023-03-07T11:35:39;6.67;;;2.50;;
38238;SDS011;24035;48.900;9.188;2023-03-07T11:38:18;5.23;;;1.93;;
38238;SDS011;24035;48.900;9.188;2023-03-07T11:40:50;4.38;;;1.90;;
38238;SDS011;24035;48.900;9.188;2023-03-07T11:46:18;5.80;;;1.98;;
38238;SDS011;24035;48.900;9.188;2023-03-07T11:54:37;5.90;;;2.03;;
38238;SDS011;24035;48.900;9.188;2023-03-07T11:57:13;5.97;;;2.00;;
38238;SDS011;24035;48.900;9.188;2023-03-07T12:00:10;5.65;;;2.13;;
38238;SDS011;24035;48.900;9.188;2023-03-07T12:03:26;4.90;;;2.25;;
38238;SDS011;24035;48.900;9.188;2023-03-07T12:11:06;7.22;;;2.22;;
38238;SDS011;24035;48.900;9.188;2023-03-07T12:14:11;6.95;;;2.25;;
38238;SDS011;24035;48.900;9.188;2023-03-07T12:19:30;7.55;;;1.92;;
38238;SDS011;24035;48.900;9.188;2023-03-07T12:25:49;5.35;;;2.40;;
38238;SDS011;24035;48.900;9.188;2023-03-07T12:28:27;4.90;;;2.10;;
38238;SDS011;24035;48.900;9.188;2023-03-07T12:31:25;5.55;;;2.30;;
38238;SDS011;24035;48.900;9.188;2023-03-07T12:36:39;6.18;;;2.35;;
38238;SDS011;24035;48.900;9.188;2023-03-07T12:44:28;4.85;;;1.92;;
38238;SDS011;24035;48.900;9.188;2023-03-07T12:47:24;4.75;;;2.28;;
38238;SDS011;24035;48.900;9.188;2023-03-07T12:50:57;8.70;;;2.00;;
38238;SDS011;24035;48.900;9.188;2023-03-07T12:59:01;5.53;;;2.08;;
38238;SDS011;24035;48.900;9.188;2023-03-07T13:01:45;5.10;;;2.08;;
38238;SDS011;24035;48.900;9.188;2023-03-07T13:06:40;4.65;;;2.03;;
38238;SDS011;24035;48.900;9.188;2023-03-07T13:09:11;7.07;;;2.60;;
38238;SDS011;24035;48.900;9.188;2023-03-07T13:12:06;5.60;;;2.20;;
38238;SDS011;24035;48.900;9.188;2023-03-07T13:14:45;5.15;;;2.63;;
38238;SDS011;24035;48.900;9.188;2023-03-07T13:19:55;4.32;;;1.67;;
38238;SDS011;24035;48.900;9.188;2023-03-07T13:27:56;5.18;;;1.88;;
38238;SDS011;24035;48.900;9.188;2023-03-07T13:30:23;3.55;;;1.70;;
38238;SDS011;24035;48.900;9.188;2023-03-07T13:37:57;4.50;;;1.63;;
38238;SDS011;24035;48.900;9.188;2023-03-07T13:54:15;4.22;;;1.58;;
38238;SDS011;24035;48.900;9.188;2023-03-07T13:56:29;4.90;;;1.70;;
38238;SDS011;24035;48.900;9.188;2023-03-07T14:06:51;4.90;;;1.52;;
38238;SDS011;24035;48.900;9.188;2023-03-07T14:09:22;4.68;;;2.00;;
38238;SDS011;24035;48.900;9.188;2023-03-07T14:26:15;4.03;;;1.27;;
38238;SDS011;24035;48.900;9.188;2023-03-07T14:28:48;3.78;;;1.27;;
38238;SDS011;24035;48.900;9.188;2023-03-07T14:31:36;3.35;;;1.27;;
38238;SDS011;24035;48.900;9.188;2023-03-07T14:36:49;5.13;;;2.38;;
38238;SDS011;24035;48.900;9.188;2023-03-07T14:39:41;3.75;;;1.58;;
38238;SDS011;24035;48.900;9.188;2023-03-07T14:42:14;3.53;;;1.40;;
38238;SDS011;24035;48.900;9.188;2023-03-07T14:50:36;3.38;;;1.42;;
38238;SDS011;24035;48.900;9.188;2023-03-07T14:55:43;3.03;;;1.23;;
38238;SDS011;24035;48.900;9.188;2023-03-07T14:58:21;6.88;;;1.77;;
38238;SDS011;24035;48.900;9.188;2023-03-07T15:00:57;4.53;;;1.65;;
38238;SDS011;24035;48.900;9.188;2023-03-07T15:03:23;6.45;;;1.60;;
38238;SDS011;24035;48.900;9.188;2023-03-07T15:05:51;4.47;;;1.50;;
38238;SDS011;24035;48.900;9.188;2023-03-07T15:08:21;5.65;;;1.70;;
38238;SDS011;24035;48.900;9.188;2023-03-07T15:10:54;3.55;;;1.27;;
38238;SDS011;24035;48.900;9.188;2023-03-07T15:13:35;2.72;;;1.33;;
38238;SDS011;24035;48.900;9.188;2023-03-07T15:16:10;4.20;;;1.40;;
38238;SDS011;24035;48.900;9.188;2023-03-07T15:18:42;3.15;;;1.42;;
38238;SDS011;24035;48.900;9.188;2023-03-07T15:21:15;4.63;;;1.52;;
38238;SDS011;24035;48.900;9.188;2023-03-07T15:23:50;2.80;;;1.13;;
38238;SDS011;24035;48.900;9.188;2023-03-07T15:26:18;3.95;;;1.20;;
38238;SDS011;24035;48.900;9.188;2023-03-07T15:28:45;3.60;;;1.50;;
38238;SDS011;24035;48.900;9.188;2023-03-07T15:31:11;5.72;;;1.90;;
38238;SDS011;24035;48.900;9.188;2023-03-07T15:33:39;5.00;;;1.70;;
38238;SDS011;24035;48.900;9.188;2023-03-07T15:38:31;4.88;;;1.58;;
38238;SDS011;24035;48.900;9.188;2023-03-07T15:40:57;5.82;;;1.70;;
38238;SDS011;24035;48.900;9.188;2023-03-07T15:43:27;5.30;;;1.95;;
38238;SDS011;24035;48.900;9.188;2023-03-07T15:46:15;5.20;;;1.80;;
38238;SDS011;24035;48.900;9.188;2023-03-07T15:48:52;4.35;;;1.60;;
38238;SDS011;24035;48.900;9.188;2023-03-07T15:51:22;4.10;;;1.80;;
38238;SDS011;24035;48.900;9.188;2023-03-07T15:53:54;2.67;;;1.17;;
38238;SDS011;24035;48.900;9.188;2023-03-07T15:56:39;4.38;;;1.48;;
38238;SDS011;24035;48.900;9.188;2023-03-07T16:04:59;3.53;;;1.20;;
38238;SDS011;24035;48.900;9.188;2023-03-07T16:07:27;5.32;;;1.48;;
38238;SDS011;24035;48.900;9.188;2023-03-07T16:09:53;5.70;;;1.55;;
38238;SDS011;24035;48.900;9.188;2023-03-07T16:12:19;5.25;;;2.22;;
38238;SDS011;24035;48.900;9.188;2023-03-07T16:14:47;4.43;;;1.85;;
38238;SDS011;24035;48.900;9.188;2023-03-07T16:17:34;4.03;;;1.25;;
38238;SDS011;24035;48.900;9.188;2023-03-07T16:20:02;4.22;;;1.45;;
38238;SDS011;24035;48.900;9.188;2023-03-07T16:22:28;3.70;;;1.45;;
38238;SDS011;24035;48.900;9.188;2023-03-07T16:24:55;4.60;;;1.70;;
38238;SDS011;24035;48.900;9.188;2023-03-07T16:27:21;6.53;;;2.08;;
38238;SDS011;24035;48.900;9.188;2023-03-07T16:29:49;5.72;;;2.00;;
38238;SDS011;24035;48.900;9.188;2023-03-07T16:32:16;4.70;;;2.08;;
38238;SDS011;24035;48.900;9.188;2023-03-07T16:34:44;4.30;;;1.65;;
38238;SDS011;24035;48.900;9.188;2023-03-07T16:37:09;5.75;;;2.13;;
38238;SDS011;24035;48.900;9.188;2023-03-07T16:39:36;6.63;;;1.75;;
38238;SDS011;24035;48.900;9.188;2023-03-07T16:42:02;4.88;;;1.88;;
38238;SDS011;24035;48.900;9.188;2023-03-07T16:44:29;7.10;;;1.90;;
38238;SDS011;24035;48.900;9.188;2023-03-07T16:47:28;5.55;;;2.38;;
38238;SDS011;24035;48.900;9.188;2023-03-07T16:49:47;4.80;;;1.98;;
38238;SDS011;24035;48.900;9.188;2023-03-07T16:52:14;6.38;;;2.25;;
38238;SDS011;24035;48.900;9.188;2023-03-07T16:54:40;5.63;;;2.30;;
38238;SDS011;24035;48.900;9.188;2023-03-07T16:57:06;5.45;;;2.20;;
38238;SDS011;24035;48.900;9.188;2023-03-07T16:59:41;11.10;;;3.00;;
38238;SDS011;24035;48.900;9.188;2023-03-07T17:02:10;6.80;;;2.72;;
38238;SDS011;24035;48.900;9.188;2023-03-07T17:04:46;5.25;;;2.20;;
38238;SDS011;24035;48.900;9.188;2023-03-07T17:07:16;6.93;;;2.33;;
38238;SDS011;24035;48.900;9.188;2023-03-07T17:09:42;5.80;;;3.05;;
38238;SDS011;24035;48.900;9.188;2023-03-07T17:12:08;6.95;;;2.38;;
38238;SDS011;24035;48.900;9.188;2023-03-07T17:14:34;5.43;;;2.30;;
38238;SDS011;24035;48.900;9.188;2023-03-07T17:17:00;5.18;;;1.92;;
38238;SDS011;24035;48.900;9.188;2023-03-07T17:19:30;5.93;;;2.00;;
38238;SDS011;24035;48.900;9.188;2023-03-07T17:21:57;5.40;;;2.15;;
38238;SDS011;24035;48.900;9.188;2023-03-07T17:24:24;9.18;;;3.80;;
38238;SDS011;24035;48.900;9.188;2023-03-07T17:26:50;5.22;;;2.15;;
38238;SDS011;24035;48.900;9.188;2023-03-07T17:30:03;6.20;;;2.10;;
38238;SDS011;24035;48.900;9.188;2023-03-07T17:32:05;6.03;;;2.10;;
38238;SDS011;24035;48.900;9.188;2023-03-07T17:34:32;7.05;;;2.50;;